createdAt,value
2017-07-19T00:00:00.846Z,0
2017-07-19T00:00:41.743Z,0
2017-07-19T00:01:22.626Z,0
2017-07-19T00:02:03.521Z,0
2017-07-19T00:02:44.416Z,0
2017-07-19T00:03:25.297Z,0
2017-07-19T00:04:06.192Z,0
2017-07-19T00:04:47.080Z,0
2017-07-19T00:05:27.975Z,0
2017-07-19T00:06:08.898Z,0
2017-07-19T00:06:49.788Z,0
2017-07-19T00:07:30.660Z,0
2017-07-19T00:08:11.548Z,0
2017-07-19T00:08:52.447Z,0
2017-07-19T00:09:33.334Z,0
2017-07-19T00:10:14.225Z,0
2017-07-19T00:10:55.127Z,0
2017-07-19T00:11:36.015Z,0
2017-07-19T00:12:16.896Z,0
2017-07-19T00:12:57.784Z,0
2017-07-19T00:13:38.677Z,0
2017-07-19T00:14:19.576Z,0
2017-07-19T00:15:00.469Z,0
2017-07-19T00:15:41.363Z,0
2017-07-19T00:16:22.254Z,0
2017-07-19T00:17:03.150Z,0
2017-07-19T00:17:44.037Z,0
2017-07-19T00:18:24.927Z,0
2017-07-19T00:19:05.810Z,0
2017-07-19T00:19:46.694Z,0
2017-07-19T00:20:27.583Z,0
2017-07-19T00:21:08.497Z,0
2017-07-19T00:21:49.383Z,0
2017-07-19T00:24:08.667Z,0
2017-07-19T00:24:49.564Z,0
2017-07-19T00:25:30.457Z,0
2017-07-19T00:26:11.349Z,0
2017-07-19T00:26:52.239Z,0
2017-07-19T00:27:33.130Z,0
2017-07-19T00:28:14.022Z,0
2017-07-19T00:28:54.917Z,0
2017-07-19T00:29:35.813Z,0
2017-07-19T00:30:16.701Z,0
2017-07-19T00:30:57.600Z,0
2017-07-19T00:31:38.484Z,0
2017-07-19T00:32:19.379Z,0
2017-07-19T00:33:00.284Z,0
2017-07-19T00:33:41.172Z,0
2017-07-19T00:34:22.063Z,0
2017-07-19T00:35:02.965Z,0
2017-07-19T00:35:43.852Z,0
2017-07-19T00:36:24.747Z,0
2017-07-19T00:37:05.650Z,0
2017-07-19T00:37:46.524Z,0
2017-07-19T00:38:27.416Z,0
2017-07-19T00:39:08.308Z,0
2017-07-19T00:39:49.204Z,0
2017-07-19T00:40:30.094Z,0
2017-07-19T00:41:10.980Z,0
2017-07-19T00:41:51.868Z,0
2017-07-19T00:42:32.746Z,0
2017-07-19T00:43:13.642Z,0
2017-07-19T00:43:54.534Z,0
2017-07-19T00:44:35.437Z,0
2017-07-19T00:45:16.331Z,0
2017-07-19T00:45:57.225Z,0
2017-07-19T00:46:38.114Z,0
2017-07-19T00:47:19.011Z,0
2017-07-19T00:47:59.903Z,0
2017-07-19T00:48:40.801Z,0
2017-07-19T00:49:21.697Z,0
2017-07-19T00:50:02.593Z,0
2017-07-19T00:50:43.479Z,0
2017-07-19T00:51:24.379Z,0
2017-07-19T00:52:05.255Z,0
2017-07-19T00:52:46.150Z,0
2017-07-19T00:53:27.042Z,0
2017-07-19T00:54:07.938Z,0
2017-07-19T00:54:48.816Z,0
2017-07-19T00:55:29.710Z,0
2017-07-19T00:56:10.603Z,0
2017-07-19T00:56:51.479Z,0
2017-07-19T00:57:32.379Z,0
2017-07-19T00:58:13.269Z,0
2017-07-19T00:58:54.163Z,0
2017-07-19T00:59:35.060Z,0
2017-07-19T01:00:15.984Z,0
2017-07-19T01:00:56.879Z,0
2017-07-19T01:01:37.776Z,0
2017-07-19T01:02:18.666Z,0
2017-07-19T01:02:59.556Z,0
2017-07-19T01:03:40.449Z,0
2017-07-19T01:04:21.337Z,0
2017-07-19T01:05:02.267Z,0
2017-07-19T01:05:43.147Z,0
2017-07-19T01:06:24.038Z,0
2017-07-19T01:07:04.932Z,0
2017-07-19T01:07:45.821Z,0
2017-07-19T01:08:26.714Z,0
2017-07-19T01:09:07.607Z,0
2017-07-19T01:09:48.494Z,0
2017-07-19T01:10:29.388Z,0
2017-07-19T01:11:10.278Z,0
2017-07-19T01:11:51.171Z,0
2017-07-19T01:12:32.051Z,0
2017-07-19T01:13:12.936Z,0
2017-07-19T01:13:53.825Z,0
2017-07-19T01:14:34.723Z,0
2017-07-19T01:15:15.614Z,0
2017-07-19T01:15:56.501Z,0
2017-07-19T01:16:37.395Z,0
2017-07-19T01:17:18.287Z,0
2017-07-19T01:17:59.181Z,0
2017-07-19T01:18:40.067Z,0
2017-07-19T01:19:20.955Z,0
2017-07-19T01:20:01.845Z,0
2017-07-19T01:20:42.743Z,0
2017-07-19T01:21:23.676Z,0
2017-07-19T01:22:04.546Z,0
2017-07-19T01:22:45.432Z,0
2017-07-19T01:23:26.316Z,0
2017-07-19T01:24:07.209Z,0
2017-07-19T01:24:48.091Z,0
2017-07-19T01:25:28.987Z,0
2017-07-19T01:26:09.873Z,0
2017-07-19T01:26:50.753Z,0
2017-07-19T01:27:31.630Z,0
2017-07-19T01:28:12.530Z,0
2017-07-19T01:28:53.420Z,0
2017-07-19T01:29:34.303Z,0
2017-07-19T01:30:15.193Z,0
2017-07-19T01:30:56.080Z,0
2017-07-19T01:31:36.966Z,0
2017-07-19T01:32:17.849Z,0
2017-07-19T01:32:58.734Z,0
2017-07-19T01:33:39.619Z,0
2017-07-19T01:34:20.503Z,0
2017-07-19T01:35:01.387Z,0
2017-07-19T01:35:42.269Z,0
2017-07-19T01:36:23.155Z,0
2017-07-19T01:37:04.044Z,0
2017-07-19T01:37:44.928Z,0
2017-07-19T01:38:25.855Z,0
2017-07-19T01:39:06.734Z,0
2017-07-19T01:39:47.622Z,0
2017-07-19T01:40:28.540Z,0
2017-07-19T01:41:09.411Z,0
2017-07-19T01:41:50.295Z,0
2017-07-19T01:42:31.187Z,0
2017-07-19T01:43:12.099Z,0
2017-07-19T01:43:52.969Z,0
2017-07-19T01:44:33.864Z,0
2017-07-19T01:45:14.757Z,0
2017-07-19T01:45:55.647Z,0
2017-07-19T01:46:36.553Z,0
2017-07-19T01:47:17.440Z,0
2017-07-19T01:47:58.326Z,0
2017-07-19T01:48:39.215Z,0
2017-07-19T01:49:20.112Z,0
2017-07-19T01:50:01.018Z,0
2017-07-19T01:50:41.894Z,0
2017-07-19T01:51:22.786Z,0
2017-07-19T01:52:03.676Z,0
2017-07-19T01:52:44.574Z,0
2017-07-19T01:53:25.464Z,0
2017-07-19T01:54:06.349Z,0
2017-07-19T01:54:47.246Z,0
2017-07-19T01:55:28.138Z,0
2017-07-19T01:56:09.032Z,0
2017-07-19T01:56:49.917Z,0
2017-07-19T01:57:30.804Z,0
2017-07-19T01:58:11.690Z,0
2017-07-19T01:58:52.581Z,0
2017-07-19T01:59:33.475Z,0
2017-07-19T02:00:14.370Z,0
2017-07-19T02:00:55.253Z,0
2017-07-19T02:01:36.147Z,0
2017-07-19T02:02:17.040Z,0
2017-07-19T02:02:57.958Z,0
2017-07-19T02:03:38.820Z,0
2017-07-19T02:04:19.707Z,0
2017-07-19T02:05:00.591Z,0
2017-07-19T02:05:41.500Z,0
2017-07-19T02:06:22.383Z,0
2017-07-19T02:07:03.276Z,0
2017-07-19T02:07:44.170Z,0
2017-07-19T02:08:25.046Z,0
2017-07-19T02:09:05.931Z,0
2017-07-19T02:09:46.823Z,0
2017-07-19T02:10:27.714Z,0
2017-07-19T02:11:08.595Z,0
2017-07-19T02:11:49.487Z,0
2017-07-19T02:12:30.374Z,0
2017-07-19T02:13:11.267Z,0
2017-07-19T02:13:52.157Z,0
2017-07-19T02:14:33.041Z,0
2017-07-19T02:15:13.945Z,0
2017-07-19T02:15:54.829Z,0
2017-07-19T02:16:35.717Z,0
2017-07-19T02:17:16.604Z,0
2017-07-19T02:17:57.499Z,0
2017-07-19T02:18:38.389Z,0
2017-07-19T02:19:19.287Z,0
2017-07-19T02:20:00.174Z,0
2017-07-19T02:20:41.063Z,0
2017-07-19T02:21:21.947Z,0
2017-07-19T02:22:02.830Z,0
2017-07-19T02:22:43.725Z,0
2017-07-19T02:23:24.618Z,0
2017-07-19T02:24:05.510Z,0
2017-07-19T02:24:46.399Z,0
2017-07-19T02:25:27.289Z,0
2017-07-19T02:26:08.179Z,0
2017-07-19T02:26:49.076Z,0
2017-07-19T02:27:29.970Z,0
2017-07-19T02:28:10.864Z,0
2017-07-19T02:28:51.749Z,0
2017-07-19T02:29:32.643Z,0
2017-07-19T02:30:13.527Z,0
2017-07-19T02:30:54.417Z,0
2017-07-19T02:31:35.305Z,0
2017-07-19T02:32:16.191Z,0
2017-07-19T02:32:57.087Z,0
2017-07-19T02:33:37.978Z,0
2017-07-19T02:34:18.861Z,0
2017-07-19T02:34:59.756Z,0
2017-07-19T02:35:40.648Z,0
2017-07-19T02:36:21.554Z,0
2017-07-19T02:37:02.486Z,0
2017-07-19T02:37:43.358Z,0
2017-07-19T02:38:24.245Z,0
2017-07-19T02:39:05.129Z,0
2017-07-19T02:39:46.017Z,0
2017-07-19T02:40:26.909Z,0
2017-07-19T02:41:07.803Z,0
2017-07-19T02:41:48.714Z,0
2017-07-19T02:42:29.584Z,0
2017-07-19T02:43:10.471Z,0
2017-07-19T02:43:51.357Z,0
2017-07-19T02:44:32.247Z,0
2017-07-19T02:45:13.140Z,0
2017-07-19T02:45:54.021Z,0
2017-07-19T02:46:34.916Z,0
2017-07-19T02:47:15.810Z,0
2017-07-19T02:47:56.708Z,0
2017-07-19T02:48:37.601Z,0
2017-07-19T02:49:18.482Z,0
2017-07-19T02:49:59.384Z,0
2017-07-19T02:50:40.287Z,0
2017-07-19T02:51:21.181Z,0
2017-07-19T02:52:02.071Z,0
2017-07-19T02:52:42.952Z,0
2017-07-19T02:53:23.845Z,0
2017-07-19T02:54:04.740Z,0
2017-07-19T02:54:45.614Z,0
2017-07-19T02:55:26.510Z,0
2017-07-19T02:56:07.395Z,0
2017-07-19T02:56:48.281Z,0
2017-07-19T02:57:29.173Z,0
2017-07-19T02:58:10.053Z,0
2017-07-19T02:58:50.947Z,0
2017-07-19T02:59:31.831Z,0
2017-07-19T03:00:12.721Z,0
2017-07-19T03:00:53.610Z,0
2017-07-19T03:01:34.500Z,0
2017-07-19T03:02:15.391Z,5
2017-07-19T03:02:56.291Z,5
2017-07-19T03:03:37.186Z,5
2017-07-19T03:04:18.080Z,5
2017-07-19T03:06:37.464Z,5
2017-07-19T03:07:18.354Z,5
2017-07-19T03:07:59.243Z,5
2017-07-19T03:08:40.139Z,5
2017-07-19T03:09:21.026Z,5
2017-07-19T03:10:01.915Z,5
2017-07-19T03:10:42.829Z,5
2017-07-19T03:11:23.726Z,5
2017-07-19T03:12:04.618Z,10
2017-07-19T03:12:45.511Z,10
2017-07-19T03:13:26.404Z,10
2017-07-19T03:14:07.289Z,10
2017-07-19T03:14:48.181Z,10
2017-07-19T03:15:29.069Z,10
2017-07-19T03:16:09.965Z,10
2017-07-19T03:16:50.860Z,10
2017-07-19T03:17:31.740Z,10
2017-07-19T03:18:12.642Z,10
2017-07-19T03:18:53.529Z,15
2017-07-19T03:19:34.414Z,15
2017-07-19T03:20:15.306Z,15
2017-07-19T03:20:56.197Z,15
2017-07-19T03:21:37.081Z,15
2017-07-19T03:22:17.986Z,15
2017-07-19T03:22:58.850Z,15
2017-07-19T03:23:39.738Z,15
2017-07-19T03:24:20.629Z,15
2017-07-19T03:25:01.509Z,20
2017-07-19T03:25:42.410Z,20
2017-07-19T03:26:23.307Z,20
2017-07-19T03:27:04.210Z,20
2017-07-19T03:27:45.088Z,20
2017-07-19T03:28:25.993Z,20
2017-07-19T03:29:06.880Z,20
2017-07-19T03:29:47.784Z,20
2017-07-19T03:30:28.663Z,25
2017-07-19T03:31:09.555Z,25
2017-07-19T03:31:50.441Z,25
2017-07-19T03:32:31.325Z,25
2017-07-19T03:33:12.209Z,25
2017-07-19T03:33:53.089Z,25
2017-07-19T03:34:33.983Z,25
2017-07-19T03:35:14.880Z,25
2017-07-19T03:35:55.725Z,30
2017-07-19T03:36:36.622Z,30
2017-07-19T03:37:17.557Z,30
2017-07-19T03:37:58.428Z,30
2017-07-19T03:38:39.313Z,30
2017-07-19T03:39:20.225Z,30
2017-07-19T03:40:01.087Z,30
2017-07-19T03:40:41.973Z,35
2017-07-19T03:41:22.858Z,35
2017-07-19T03:42:03.761Z,35
2017-07-19T03:42:44.702Z,35
2017-07-19T03:43:25.590Z,35
2017-07-19T03:44:06.483Z,35
2017-07-19T03:44:47.375Z,35
2017-07-19T03:45:28.263Z,40
2017-07-19T03:46:09.155Z,40
2017-07-19T03:46:50.050Z,40
2017-07-19T03:47:30.948Z,40
2017-07-19T03:48:11.830Z,40
2017-07-19T03:48:52.716Z,40
2017-07-19T03:49:33.614Z,40
2017-07-19T03:50:14.508Z,45
2017-07-19T03:50:55.403Z,45
2017-07-19T03:51:36.288Z,45
2017-07-19T03:52:17.173Z,45
2017-07-19T03:52:58.058Z,45
2017-07-19T03:53:38.942Z,45
2017-07-19T03:54:19.823Z,50
2017-07-19T03:55:00.704Z,50
2017-07-19T03:55:41.595Z,50
2017-07-19T03:56:22.494Z,50
2017-07-19T03:57:03.377Z,50
2017-07-19T03:57:44.266Z,50
2017-07-19T03:58:25.150Z,50
2017-07-19T03:59:06.043Z,55
2017-07-19T03:59:46.916Z,55
2017-07-19T04:00:27.798Z,55
2017-07-19T04:01:08.688Z,55
2017-07-19T04:01:49.586Z,55
2017-07-19T04:02:30.476Z,55
2017-07-19T04:03:11.374Z,60
2017-07-19T04:03:52.238Z,60
2017-07-19T04:04:33.130Z,60
2017-07-19T04:05:14.031Z,60
2017-07-19T04:05:54.900Z,60
2017-07-19T04:06:35.784Z,60
2017-07-19T04:07:16.658Z,60
2017-07-19T04:07:57.550Z,65
2017-07-19T04:08:38.438Z,65
2017-07-19T04:09:19.446Z,65
2017-07-19T04:10:00.263Z,65
2017-07-19T04:10:41.152Z,65
2017-07-19T04:11:22.062Z,65
2017-07-19T04:12:02.952Z,70
2017-07-19T04:12:43.839Z,70
2017-07-19T04:13:24.730Z,70
2017-07-19T04:14:05.618Z,70
2017-07-19T04:14:46.511Z,70
2017-07-19T04:15:27.401Z,70
2017-07-19T04:16:08.296Z,75
2017-07-19T04:16:49.191Z,75
2017-07-19T04:17:30.082Z,75
2017-07-19T04:18:10.974Z,75
2017-07-19T04:18:51.877Z,75
2017-07-19T04:19:32.766Z,75
2017-07-19T04:20:13.655Z,75
2017-07-19T04:20:54.549Z,80
2017-07-19T04:21:35.445Z,80
2017-07-19T04:22:16.334Z,80
2017-07-19T04:22:57.221Z,80
2017-07-19T04:23:38.104Z,80
2017-07-19T04:24:18.991Z,80
2017-07-19T04:24:59.880Z,80
2017-07-19T04:25:40.812Z,80
2017-07-19T04:26:21.707Z,85
2017-07-19T04:27:02.594Z,85
2017-07-19T04:27:43.481Z,85
2017-07-19T04:28:24.368Z,85
2017-07-19T04:29:05.263Z,85
2017-07-19T04:29:46.158Z,85
2017-07-19T04:30:27.047Z,90
2017-07-19T04:31:07.947Z,90
2017-07-19T04:31:48.832Z,90
2017-07-19T04:32:29.716Z,95
2017-07-19T04:33:10.604Z,95
2017-07-19T04:33:51.499Z,95
2017-07-19T04:34:32.381Z,95
2017-07-19T04:35:13.274Z,100
2017-07-19T04:35:54.174Z,100
2017-07-19T04:36:35.053Z,100
2017-07-19T04:37:15.966Z,100
2017-07-19T04:37:56.853Z,100
2017-07-19T04:38:37.721Z,105
2017-07-19T04:39:18.612Z,105
2017-07-19T04:39:59.494Z,105
2017-07-19T04:40:40.379Z,105
2017-07-19T04:41:21.284Z,105
2017-07-19T04:42:02.186Z,105
2017-07-19T04:42:43.070Z,105
2017-07-19T04:43:23.958Z,105
2017-07-19T04:44:04.867Z,105
2017-07-19T04:44:45.760Z,105
2017-07-19T04:45:26.684Z,105
2017-07-19T04:46:07.572Z,105
2017-07-19T04:46:48.453Z,110
2017-07-19T04:47:29.357Z,110
2017-07-19T04:48:10.248Z,110
2017-07-19T04:48:51.137Z,110
2017-07-19T04:49:32.035Z,110
2017-07-19T04:50:12.921Z,110
2017-07-19T04:50:53.798Z,110
2017-07-19T04:51:34.692Z,110
2017-07-19T04:52:15.577Z,110
2017-07-19T04:52:56.456Z,115
2017-07-19T04:53:37.343Z,115
2017-07-19T04:54:18.221Z,115
2017-07-19T04:54:59.111Z,115
2017-07-19T04:55:40.026Z,115
2017-07-19T04:56:20.879Z,115
2017-07-19T04:57:01.773Z,115
2017-07-19T04:57:42.659Z,120
2017-07-19T04:58:23.548Z,120
2017-07-19T04:59:04.444Z,120
2017-07-19T04:59:45.340Z,120
2017-07-19T05:00:26.226Z,120
2017-07-19T05:01:07.119Z,120
2017-07-19T05:01:48.012Z,125
2017-07-19T05:02:28.905Z,125
2017-07-19T05:03:09.829Z,125
2017-07-19T05:03:50.715Z,125
2017-07-19T05:04:31.605Z,125
2017-07-19T05:05:12.507Z,125
2017-07-19T05:05:53.390Z,130
2017-07-19T05:06:34.276Z,130
2017-07-19T05:07:15.166Z,130
2017-07-19T05:07:56.060Z,130
2017-07-19T05:08:36.956Z,130
2017-07-19T05:09:17.857Z,130
2017-07-19T05:09:58.760Z,135
2017-07-19T05:10:39.637Z,135
2017-07-19T05:11:20.526Z,135
2017-07-19T05:12:01.418Z,135
2017-07-19T05:12:42.311Z,135
2017-07-19T05:13:23.207Z,135
2017-07-19T05:14:04.112Z,140
2017-07-19T05:14:45.001Z,140
2017-07-19T05:15:25.903Z,140
2017-07-19T05:16:06.795Z,140
2017-07-19T05:16:47.700Z,140
2017-07-19T05:17:28.611Z,145
2017-07-19T05:18:09.517Z,145
2017-07-19T05:18:50.433Z,145
2017-07-19T05:19:31.334Z,145
2017-07-19T05:20:12.243Z,145
2017-07-19T05:22:05.856Z,150
2017-07-19T05:22:46.748Z,150
2017-07-19T05:23:27.636Z,150
2017-07-19T05:24:08.530Z,155
2017-07-19T05:24:49.413Z,155
2017-07-19T05:25:30.302Z,155
2017-07-19T05:26:11.201Z,155
2017-07-19T05:26:52.086Z,160
2017-07-19T05:27:32.978Z,160
2017-07-19T05:28:13.879Z,160
2017-07-19T05:28:54.775Z,160
2017-07-19T05:29:35.636Z,160
2017-07-19T05:30:16.525Z,160
2017-07-19T05:30:57.419Z,160
2017-07-19T05:31:38.313Z,160
2017-07-19T05:32:19.210Z,160
2017-07-19T05:33:00.102Z,160
2017-07-19T05:33:40.984Z,160
2017-07-19T05:34:21.866Z,160
2017-07-19T05:35:02.765Z,160
2017-07-19T05:35:43.652Z,165
2017-07-19T05:36:24.530Z,165
2017-07-19T05:37:05.424Z,165
2017-07-19T05:37:46.311Z,165
2017-07-19T05:38:27.211Z,165
2017-07-19T05:39:08.098Z,170
2017-07-19T05:39:48.989Z,170
2017-07-19T05:40:29.870Z,170
2017-07-19T05:41:10.759Z,175
2017-07-19T05:41:51.644Z,175
2017-07-19T05:42:32.538Z,175
2017-07-19T05:43:13.426Z,175
2017-07-19T05:43:54.326Z,175
2017-07-19T05:44:35.213Z,180
2017-07-19T05:45:16.107Z,180
2017-07-19T05:45:56.993Z,180
2017-07-19T05:46:37.881Z,185
2017-07-19T05:47:18.772Z,185
2017-07-19T05:47:59.665Z,185
2017-07-19T05:48:40.547Z,185
2017-07-19T05:49:21.447Z,190
2017-07-19T05:50:02.336Z,190
2017-07-19T05:50:43.230Z,190
2017-07-19T05:51:24.123Z,195
2017-07-19T05:52:05.028Z,195
2017-07-19T05:52:45.924Z,195
2017-07-19T05:53:26.807Z,195
2017-07-19T05:54:07.708Z,200
2017-07-19T05:54:48.595Z,200
2017-07-19T05:55:29.484Z,200
2017-07-19T05:56:10.368Z,205
2017-07-19T05:56:51.249Z,205
2017-07-19T05:57:32.153Z,205
2017-07-19T05:58:13.053Z,210
2017-07-19T05:58:53.938Z,210
2017-07-19T05:59:34.823Z,215
2017-07-19T06:00:15.722Z,220
2017-07-19T06:00:56.617Z,220
2017-07-19T06:01:37.498Z,225
2017-07-19T06:02:18.386Z,225
2017-07-19T06:02:59.274Z,230
2017-07-19T06:03:40.182Z,230
2017-07-19T06:04:21.071Z,235
2017-07-19T06:05:01.970Z,235
2017-07-19T06:05:42.856Z,240
2017-07-19T06:06:23.747Z,245
2017-07-19T06:07:04.635Z,245
2017-07-19T06:07:45.534Z,250
2017-07-19T06:08:26.441Z,255
2017-07-19T06:09:07.333Z,270
2017-07-19T06:09:48.229Z,270
2017-07-19T06:10:29.121Z,270
2017-07-19T06:11:10.000Z,275
2017-07-19T06:11:50.891Z,280
2017-07-19T06:12:31.792Z,285
2017-07-19T06:13:12.705Z,290
2017-07-19T06:13:53.587Z,295
2017-07-19T06:14:34.496Z,300
2017-07-19T06:15:15.382Z,305
2017-07-19T06:15:56.265Z,310
2017-07-19T06:16:37.155Z,315
2017-07-19T06:17:18.051Z,315
2017-07-19T06:17:58.954Z,325
2017-07-19T06:18:39.847Z,330
2017-07-19T06:19:20.733Z,345
2017-07-19T06:20:01.620Z,345
2017-07-19T06:20:42.521Z,350
2017-07-19T06:21:23.410Z,355
2017-07-19T06:22:04.322Z,360
2017-07-19T06:22:45.207Z,365
2017-07-19T06:23:26.094Z,370
2017-07-19T06:24:06.991Z,375
2017-07-19T06:24:47.875Z,380
2017-07-19T06:25:28.763Z,395
2017-07-19T06:26:09.655Z,410
2017-07-19T06:26:50.561Z,420
2017-07-19T06:27:31.441Z,435
2017-07-19T06:28:12.333Z,445
2017-07-19T06:28:53.220Z,445
2017-07-19T06:29:34.100Z,455
2017-07-19T06:30:14.993Z,465
2017-07-19T06:30:55.896Z,475
2017-07-19T06:31:36.791Z,490
2017-07-19T06:32:17.684Z,510
2017-07-19T06:32:58.582Z,540
2017-07-19T06:33:39.523Z,610
2017-07-19T06:34:20.403Z,850
2017-07-19T06:35:01.293Z,1195
2017-07-19T06:35:42.196Z,1510
2017-07-19T06:36:23.095Z,1710
2017-07-19T06:37:03.988Z,1780
2017-07-19T06:37:44.894Z,1840
2017-07-19T06:38:25.796Z,1925
2017-07-19T06:39:06.695Z,1930
2017-07-19T06:39:47.592Z,1860
2017-07-19T06:40:28.499Z,1820
2017-07-19T06:41:09.402Z,1805
2017-07-19T06:41:50.299Z,1860
2017-07-19T06:42:31.214Z,1915
2017-07-19T06:43:12.118Z,1865
2017-07-19T06:43:53.020Z,1685
2017-07-19T06:44:33.920Z,1535
2017-07-19T06:45:14.855Z,1500
2017-07-19T06:45:55.762Z,1575
2017-07-19T06:46:36.662Z,1795
2017-07-19T06:47:17.558Z,1895
2017-07-19T06:47:58.459Z,1940
2017-07-19T06:48:39.358Z,1905
2017-07-19T06:49:20.264Z,1805
2017-07-19T06:50:01.160Z,1745
2017-07-19T06:50:42.061Z,1730
2017-07-19T06:51:22.962Z,1750
2017-07-19T06:52:03.861Z,1830
2017-07-19T06:52:44.765Z,1915
2017-07-19T06:53:25.659Z,2015
2017-07-19T06:54:06.561Z,2030
2017-07-19T06:54:47.458Z,2030
2017-07-19T06:55:28.356Z,2010
2017-07-19T06:56:09.257Z,1955
2017-07-19T06:56:50.170Z,1920
2017-07-19T06:57:31.087Z,1925
2017-07-19T06:58:12.107Z,1950
2017-07-19T06:58:53.018Z,1965
2017-07-19T06:59:33.940Z,1985
2017-07-19T07:00:14.847Z,2000
2017-07-19T07:00:55.756Z,2065
2017-07-19T07:01:36.671Z,2165
2017-07-19T07:02:17.576Z,2255
2017-07-19T07:02:58.475Z,2310
2017-07-19T07:03:39.377Z,2345
2017-07-19T07:04:20.285Z,2360
2017-07-19T07:05:01.203Z,2350
2017-07-19T07:05:42.097Z,2320
2017-07-19T07:06:23.010Z,2275
2017-07-19T07:07:03.914Z,2195
2017-07-19T07:07:44.819Z,2125
2017-07-19T07:08:25.725Z,2030
2017-07-19T07:10:45.308Z,2155
2017-07-19T07:11:26.218Z,2240
2017-07-19T07:12:07.141Z,2360
2017-07-19T07:12:48.056Z,2315
2017-07-19T07:13:28.969Z,2295
2017-07-19T07:14:09.882Z,2220
2017-07-19T07:14:50.784Z,2045
2017-07-19T07:15:31.697Z,1555
2017-07-19T07:16:12.606Z,1585
2017-07-19T07:16:53.509Z,1765
2017-07-19T07:17:34.418Z,2265
2017-07-19T07:18:15.313Z,2290
2017-07-19T07:18:56.214Z,2075
2017-07-19T07:19:37.121Z,1850
2017-07-19T07:20:18.028Z,1765
2017-07-19T07:20:58.937Z,1790
2017-07-19T07:21:39.833Z,1930
2017-07-19T07:22:20.736Z,2135
2017-07-19T07:23:01.642Z,2220
2017-07-19T07:23:42.552Z,2285
2017-07-19T07:24:23.486Z,2345
2017-07-19T07:25:04.398Z,2405
2017-07-19T07:25:45.306Z,2320
2017-07-19T07:26:26.207Z,2405
2017-07-19T07:27:07.115Z,2365
2017-07-19T07:27:48.006Z,2440
2017-07-19T07:28:28.918Z,2415
2017-07-19T07:29:09.822Z,2270
2017-07-19T07:29:50.712Z,2085
2017-07-19T07:30:31.618Z,1995
2017-07-19T07:31:12.520Z,1955
2017-07-19T07:31:53.430Z,1960
2017-07-19T07:32:34.345Z,2015
2017-07-19T07:33:15.249Z,2110
2017-07-19T07:33:56.153Z,2295
2017-07-19T07:34:37.052Z,2415
2017-07-19T07:35:17.972Z,2535
2017-07-19T07:35:58.867Z,2395
2017-07-19T07:36:39.776Z,2585
2017-07-19T07:37:20.679Z,2605
2017-07-19T07:38:01.589Z,2565
2017-07-19T07:38:42.498Z,2520
2017-07-19T07:39:23.401Z,2485
2017-07-19T07:40:04.302Z,2500
2017-07-19T07:40:45.209Z,2515
2017-07-19T07:41:26.117Z,2570
2017-07-19T07:42:07.031Z,2615
2017-07-19T07:42:47.929Z,2615
2017-07-19T07:43:28.840Z,2595
2017-07-19T07:44:09.749Z,2545
2017-07-19T07:44:50.644Z,2480
2017-07-19T07:45:31.556Z,2390
2017-07-19T07:46:12.511Z,2330
2017-07-19T07:46:53.412Z,2295
2017-07-19T07:47:34.315Z,2320
2017-07-19T07:48:15.235Z,2350
2017-07-19T07:48:56.133Z,2380
2017-07-19T07:49:37.047Z,2430
2017-07-19T07:50:17.985Z,2465
2017-07-19T07:50:58.854Z,2490
2017-07-19T07:51:39.785Z,2430
2017-07-19T07:52:20.672Z,2085
2017-07-19T07:53:01.588Z,1570
2017-07-19T07:53:42.499Z,1005
2017-07-19T07:54:23.405Z,665
2017-07-19T07:55:04.321Z,595
2017-07-19T07:55:45.237Z,570
2017-07-19T07:56:26.137Z,555
2017-07-19T07:57:07.069Z,545
2017-07-19T07:57:47.983Z,545
2017-07-19T07:58:28.888Z,545
2017-07-19T07:59:09.806Z,540
2017-07-19T07:59:50.716Z,535
2017-07-19T08:00:31.635Z,535
2017-07-19T08:01:12.545Z,535
2017-07-19T08:01:53.458Z,535
2017-07-19T08:02:34.365Z,535
2017-07-19T08:03:15.274Z,535
2017-07-19T08:03:56.183Z,535
2017-07-19T08:04:37.094Z,540
2017-07-19T08:05:18.002Z,540
2017-07-19T08:05:58.918Z,545
2017-07-19T08:06:39.826Z,545
2017-07-19T08:07:20.733Z,545
2017-07-19T08:08:01.641Z,545
2017-07-19T08:08:42.549Z,550
2017-07-19T08:09:23.460Z,550
2017-07-19T08:10:04.373Z,555
2017-07-19T08:10:45.296Z,560
2017-07-19T08:11:26.200Z,560
2017-07-19T08:12:07.125Z,560
2017-07-19T08:12:48.031Z,570
2017-07-19T08:13:28.944Z,580
2017-07-19T08:14:09.866Z,590
2017-07-19T08:14:50.799Z,620
2017-07-19T08:15:31.721Z,760
2017-07-19T08:17:25.403Z,1930
2017-07-19T08:18:06.318Z,1980
2017-07-19T08:18:47.221Z,2040
2017-07-19T08:19:28.133Z,2215
2017-07-19T08:20:09.069Z,2380
2017-07-19T08:20:49.995Z,2420
2017-07-19T08:21:30.910Z,2535
2017-07-19T08:22:11.843Z,2620
2017-07-19T08:22:52.746Z,2705
2017-07-19T08:23:33.639Z,2715
2017-07-19T08:24:14.695Z,2740
2017-07-19T08:24:55.611Z,2685
2017-07-19T08:25:36.536Z,2715
2017-07-19T08:26:17.448Z,2850
2017-07-19T08:26:58.351Z,2885
2017-07-19T08:27:39.267Z,3025
2017-07-19T08:28:20.178Z,2970
2017-07-19T08:29:01.094Z,2920
2017-07-19T08:29:42.006Z,2870
2017-07-19T08:30:22.918Z,2875
2017-07-19T08:31:03.836Z,2890
2017-07-19T08:31:44.992Z,2935
2017-07-19T08:32:25.911Z,2735
2017-07-19T08:33:06.823Z,2595
2017-07-19T08:33:47.743Z,2630
2017-07-19T08:34:28.642Z,2925
2017-07-19T08:35:09.555Z,3095
2017-07-19T08:35:50.481Z,3125
2017-07-19T08:36:31.392Z,3130
2017-07-19T08:37:12.310Z,2970
2017-07-19T08:37:53.229Z,2740
2017-07-19T08:38:34.139Z,2605
2017-07-19T08:39:15.055Z,2555
2017-07-19T08:39:55.978Z,2555
2017-07-19T08:40:36.896Z,2685
2017-07-19T08:41:17.826Z,2785
2017-07-19T08:41:58.736Z,2820
2017-07-19T08:42:39.658Z,2845
2017-07-19T08:43:20.584Z,2865
2017-07-19T08:44:01.508Z,2930
2017-07-19T08:44:42.419Z,2975
2017-07-19T08:45:23.350Z,2995
2017-07-19T08:46:04.230Z,3005
2017-07-19T08:46:45.153Z,3015
2017-07-19T08:47:26.060Z,3005
2017-07-19T08:48:06.979Z,3020
2017-07-19T08:48:47.905Z,3030
2017-07-19T08:49:28.806Z,3045
2017-07-19T08:50:09.723Z,3070
2017-07-19T08:50:50.641Z,2695
2017-07-19T08:51:31.585Z,2530
2017-07-19T08:52:12.466Z,2535
2017-07-19T08:52:53.418Z,2810
2017-07-19T08:53:34.325Z,2935
2017-07-19T08:54:15.233Z,2970
2017-07-19T08:54:56.157Z,3025
2017-07-19T08:55:37.077Z,3070
2017-07-19T08:56:17.992Z,3135
2017-07-19T08:56:58.902Z,3200
2017-07-19T08:57:39.829Z,3240
2017-07-19T08:58:20.747Z,3225
2017-07-19T08:59:01.652Z,3200
2017-07-19T08:59:42.564Z,3140
2017-07-19T09:00:23.472Z,3030
2017-07-19T09:01:04.392Z,2945
2017-07-19T09:01:45.301Z,2870
2017-07-19T09:02:26.233Z,2860
2017-07-19T09:03:07.152Z,2860
2017-07-19T09:03:48.068Z,2850
2017-07-19T09:04:28.982Z,2890
2017-07-19T09:05:09.895Z,2895
2017-07-19T09:05:50.808Z,2875
2017-07-19T09:06:31.719Z,2840
2017-07-19T09:07:12.641Z,2830
2017-07-19T09:07:53.562Z,2835
2017-07-19T09:08:34.477Z,2860
2017-07-19T09:09:15.395Z,2910
2017-07-19T09:09:56.306Z,2945
2017-07-19T09:10:37.230Z,2995
2017-07-19T09:11:18.155Z,3030
2017-07-19T09:11:59.081Z,3050
2017-07-19T09:12:39.999Z,3060
2017-07-19T09:13:20.909Z,2960
2017-07-19T09:14:01.831Z,2580
2017-07-19T09:14:42.743Z,2600
2017-07-19T09:15:23.655Z,2835
2017-07-19T09:16:04.570Z,3280
2017-07-19T09:16:45.487Z,3345
2017-07-19T09:17:26.412Z,3325
2017-07-19T09:18:07.346Z,3295
2017-07-19T09:18:48.246Z,3210
2017-07-19T09:19:29.168Z,3045
2017-07-19T09:20:10.081Z,2860
2017-07-19T09:20:51.014Z,2675
2017-07-19T09:21:31.926Z,2545
2017-07-19T09:22:12.845Z,2410
2017-07-19T09:22:53.766Z,2410
2017-07-19T09:23:34.687Z,2445
2017-07-19T09:24:15.609Z,2495
2017-07-19T09:24:56.520Z,2580
2017-07-19T09:25:37.439Z,2925
2017-07-19T09:26:18.361Z,2760
2017-07-19T09:26:59.282Z,2830
2017-07-19T09:27:40.204Z,2755
2017-07-19T09:28:21.130Z,2760
2017-07-19T09:29:02.050Z,2735
2017-07-19T09:29:42.967Z,2805
2017-07-19T09:30:23.889Z,2875
2017-07-19T09:31:04.812Z,3005
2017-07-19T09:31:45.735Z,3145
2017-07-19T09:32:26.652Z,3330
2017-07-19T09:33:07.597Z,3375
2017-07-19T09:33:48.489Z,3370
2017-07-19T09:34:29.412Z,3340
2017-07-19T09:35:10.332Z,3245
2017-07-19T09:35:51.250Z,2680
2017-07-19T09:36:32.168Z,2540
2017-07-19T09:37:13.095Z,2635
2017-07-19T09:37:54.017Z,2950
2017-07-19T09:38:34.942Z,2895
2017-07-19T09:39:15.857Z,2945
2017-07-19T09:39:56.775Z,3020
2017-07-19T09:40:37.696Z,3085